DFMAG EDLM-EDDN
Flight info
| Callsign | DFMAG |
|---|---|
| Flight time | 1h 21m |
| Altitude | 19000 |
| Route | GETNI/N0293F240 IFR Z841 BIGSU/N0310F240 L603 TESGA Z719 ETOLU Z723 KOMIB T193 ERTES T194 DODAS DODAS1V |
| Aircraft | TBM9/L-SDGRWY/E |
Departure
| Time | 2026-05-07 18:40 |
|---|---|
| Airport | Marl-Loemühle Airfield (EDLM) |
Arrival
| Time | 2026-05-07 20:01 |
|---|---|
| Airport | Nuremberg Airport (EDDN) |
| Time | Latitude | Longitude | Altitude | Speed | Heading |
|---|---|---|---|---|---|
| 2026-05-07 18:27 | 51.64793 | 7.16142 | 233 ft | 0 kts | 101° |
| 2026-05-07 18:28 | 51.64793 | 7.16141 | 233 ft | 0 kts | 101° |
| 2026-05-07 18:36 | 51.64793 | 7.16142 | 233 ft | 1 kts | 100° |
| 2026-05-07 18:36 | 51.64772 | 7.16175 | 235 ft | 5 kts | 150° |
| 2026-05-07 18:37 | 51.64741 | 7.16193 | 237 ft | 5 kts | 204° |
| 2026-05-07 18:37 | 51.64733 | 7.16118 | 233 ft | 10 kts | 282° |
| 2026-05-07 18:37 | 51.64735 | 7.16004 | 233 ft | 11 kts | 249° |
| 2026-05-07 18:37 | 51.64685 | 7.15923 | 233 ft | 11 kts | 234° |
| 2026-05-07 18:38 | 51.64661 | 7.15791 | 232 ft | 11 kts | 225° |
| 2026-05-07 18:38 | 51.64655 | 7.15785 | 232 ft | 0 kts | 194° |
| 2026-05-07 18:38 | 51.64642 | 7.15781 | 230 ft | 10 kts | 179° |
| 2026-05-07 18:39 | 51.64619 | 7.15816 | 232 ft | 0 kts | 75° |
| 2026-05-07 18:39 | 51.64662 | 7.16039 | 233 ft | 54 kts | 73° |
| 2026-05-07 18:39 | 51.64831 | 7.16952 | 315 ft | 107 kts | 74° |
| 2026-05-07 18:40 | 51.65026 | 7.18162 | 783 ft | 119 kts | 76° |
| 2026-05-07 18:40 | 51.65281 | 7.19424 | 1443 ft | 115 kts | 71° |
| 2026-05-07 18:40 | 51.65541 | 7.20638 | 2076 ft | 115 kts | 72° |
| 2026-05-07 18:40 | 51.65798 | 7.21873 | 2699 ft | 117 kts | 72° |
| 2026-05-07 18:41 | 51.65835 | 7.23176 | 3311 ft | 120 kts | 102° |
| 2026-05-07 18:41 | 51.65445 | 7.24388 | 3886 ft | 127 kts | 129° |
| 2026-05-07 18:41 | 51.64752 | 7.25313 | 4477 ft | 131 kts | 138° |
| 2026-05-07 18:41 | 51.64055 | 7.26267 | 4987 ft | 139 kts | 137° |
| 2026-05-07 18:42 | 51.63207 | 7.27397 | 5021 ft | 176 kts | 140° |
| 2026-05-07 18:42 | 51.62182 | 7.28740 | 5020 ft | 202 kts | 140° |
| 2026-05-07 18:42 | 51.61057 | 7.30239 | 5018 ft | 217 kts | 139° |
| 2026-05-07 18:42 | 51.59877 | 7.31823 | 5016 ft | 224 kts | 139° |
| 2026-05-07 18:43 | 51.58667 | 7.33447 | 5018 ft | 228 kts | 139° |
| 2026-05-07 18:43 | 51.57445 | 7.35091 | 5014 ft | 230 kts | 139° |
| 2026-05-07 18:43 | 51.56213 | 7.36743 | 5014 ft | 231 kts | 139° |
| 2026-05-07 18:43 | 51.54974 | 7.38402 | 5012 ft | 232 kts | 139° |
| 2026-05-07 18:44 | 51.53732 | 7.40064 | 5010 ft | 232 kts | 139° |
| 2026-05-07 18:44 | 51.52491 | 7.41722 | 5006 ft | 233 kts | 139° |
| 2026-05-07 18:44 | 51.51248 | 7.43382 | 5008 ft | 233 kts | 140° |
| 2026-05-07 18:44 | 51.50002 | 7.45046 | 5006 ft | 233 kts | 139° |
| 2026-05-07 18:45 | 51.48786 | 7.46669 | 5004 ft | 233 kts | 139° |
| 2026-05-07 18:45 | 51.47525 | 7.48353 | 5004 ft | 233 kts | 139° |
| 2026-05-07 18:45 | 51.46274 | 7.50018 | 5003 ft | 233 kts | 140° |
| 2026-05-07 18:45 | 51.45025 | 7.51681 | 4999 ft | 233 kts | 140° |
| 2026-05-07 18:46 | 51.43776 | 7.53343 | 5003 ft | 233 kts | 140° |
| 2026-05-07 18:46 | 51.42531 | 7.54998 | 5003 ft | 233 kts | 140° |
| 2026-05-07 18:46 | 51.41283 | 7.56656 | 4999 ft | 233 kts | 140° |
| 2026-05-07 18:46 | 51.40036 | 7.58313 | 5000 ft | 233 kts | 140° |
| 2026-05-07 18:47 | 51.38784 | 7.59971 | 5001 ft | 233 kts | 140° |
| 2026-05-07 18:47 | 51.37536 | 7.61624 | 4996 ft | 232 kts | 140° |
| 2026-05-07 18:47 | 51.36294 | 7.63271 | 4996 ft | 232 kts | 140° |
| 2026-05-07 18:47 | 51.35050 | 7.64919 | 4993 ft | 232 kts | 140° |
| 2026-05-07 18:48 | 51.33813 | 7.66555 | 5000 ft | 232 kts | 140° |
| 2026-05-07 18:48 | 51.32569 | 7.68198 | 4999 ft | 232 kts | 140° |
| 2026-05-07 18:48 | 51.31323 | 7.69847 | 4998 ft | 232 kts | 140° |
| 2026-05-07 18:48 | 51.30095 | 7.71466 | 5002 ft | 232 kts | 140° |
| 2026-05-07 18:49 | 51.28836 | 7.73127 | 4996 ft | 232 kts | 140° |
| 2026-05-07 18:49 | 51.27591 | 7.74767 | 5001 ft | 232 kts | 140° |
| 2026-05-07 18:49 | 51.26365 | 7.76378 | 5000 ft | 232 kts | 141° |
| 2026-05-07 18:49 | 51.25105 | 7.78038 | 5002 ft | 232 kts | 140° |
| 2026-05-07 18:50 | 51.23858 | 7.79681 | 5003 ft | 232 kts | 140° |
| 2026-05-07 18:50 | 51.22610 | 7.81319 | 4999 ft | 232 kts | 141° |
| 2026-05-07 18:50 | 51.21383 | 7.82931 | 5001 ft | 232 kts | 141° |
| 2026-05-07 18:50 | 51.20133 | 7.84573 | 5001 ft | 232 kts | 141° |
| 2026-05-07 18:51 | 51.18887 | 7.86204 | 5003 ft | 231 kts | 141° |
| 2026-05-07 18:51 | 51.17643 | 7.87834 | 5007 ft | 231 kts | 141° |
| 2026-05-07 18:51 | 51.16403 | 7.89463 | 5003 ft | 231 kts | 141° |
| 2026-05-07 18:51 | 51.15161 | 7.91090 | 5003 ft | 232 kts | 141° |
| 2026-05-07 18:52 | 51.13910 | 7.92717 | 5000 ft | 232 kts | 141° |
| 2026-05-07 18:52 | 51.12663 | 7.94347 | 5000 ft | 233 kts | 141° |
| 2026-05-07 18:52 | 51.11402 | 7.95954 | 4998 ft | 232 kts | 144° |
| 2026-05-07 18:52 | 51.10103 | 7.97484 | 5003 ft | 232 kts | 143° |
| 2026-05-07 18:53 | 51.08823 | 7.99036 | 5000 ft | 231 kts | 143° |
| 2026-05-07 18:53 | 51.07567 | 8.00561 | 5296 ft | 218 kts | 143° |
| 2026-05-07 18:53 | 51.06429 | 8.01942 | 6050 ft | 193 kts | 144° |
| 2026-05-07 18:53 | 51.05432 | 8.03150 | 6919 ft | 168 kts | 144° |
| 2026-05-07 18:54 | 51.04571 | 8.04196 | 7764 ft | 145 kts | 144° |
| 2026-05-07 18:54 | 51.03789 | 8.05141 | 8382 ft | 141 kts | 144° |
| 2026-05-07 18:54 | 51.02994 | 8.06088 | 8901 ft | 143 kts | 144° |
| 2026-05-07 18:54 | 51.02195 | 8.07037 | 9448 ft | 144 kts | 144° |
| 2026-05-07 18:55 | 51.01390 | 8.07997 | 9978 ft | 146 kts | 143° |
| 2026-05-07 18:55 | 51.00821 | 8.08670 | 10073 ft | 166 kts | 144° |
| 2026-05-07 18:55 | 50.99804 | 8.09858 | 10084 ft | 196 kts | 144° |
| 2026-05-07 18:55 | 50.98630 | 8.11243 | 10087 ft | 224 kts | 144° |
| 2026-05-07 18:56 | 50.97326 | 8.12793 | 10085 ft | 243 kts | 144° |
| 2026-05-07 18:56 | 50.95958 | 8.14424 | 10329 ft | 241 kts | 143° |
| 2026-05-07 18:56 | 50.94686 | 8.15960 | 10983 ft | 221 kts | 143° |
| 2026-05-07 18:56 | 50.93458 | 8.17499 | 11058 ft | 232 kts | 143° |
| 2026-05-07 18:57 | 50.92142 | 8.19074 | 11058 ft | 241 kts | 144° |
| 2026-05-07 18:57 | 50.90772 | 8.20665 | 11063 ft | 246 kts | 145° |
| 2026-05-07 18:57 | 50.89461 | 8.22212 | 11677 ft | 223 kts | 144° |
| 2026-05-07 18:57 | 50.88293 | 8.23607 | 12555 ft | 197 kts | 144° |
| 2026-05-07 18:58 | 50.87271 | 8.24823 | 13528 ft | 171 kts | 145° |
| 2026-05-07 18:58 | 50.86382 | 8.25882 | 14328 ft | 154 kts | 146° |
| 2026-05-07 18:58 | 50.85514 | 8.26904 | 14805 ft | 157 kts | 146° |
| 2026-05-07 18:58 | 50.84632 | 8.27931 | 15327 ft | 158 kts | 146° |
| 2026-05-07 18:59 | 50.83750 | 8.28966 | 15926 ft | 158 kts | 146° |
| 2026-05-07 18:59 | 50.82863 | 8.30006 | 16512 ft | 160 kts | 146° |
| 2026-05-07 18:59 | 50.81966 | 8.31054 | 17129 ft | 161 kts | 146° |
| 2026-05-07 18:59 | 50.81061 | 8.32113 | 17728 ft | 163 kts | 146° |
| 2026-05-07 19:00 | 50.80145 | 8.33185 | 18340 ft | 164 kts | 146° |
| 2026-05-07 19:00 | 50.79222 | 8.34266 | 18868 ft | 166 kts | 147° |
| 2026-05-07 19:00 | 50.78234 | 8.35410 | 19081 ft | 192 kts | 147° |
| 2026-05-07 19:00 | 50.77059 | 8.36754 | 19095 ft | 223 kts | 147° |
| 2026-05-07 19:01 | 50.75590 | 8.37825 | 19097 ft | 244 kts | 166° |
| 2026-05-07 19:01 | 50.73887 | 8.38514 | 19097 ft | 261 kts | 169° |
| 2026-05-07 19:01 | 50.72097 | 8.39300 | 19092 ft | 273 kts | 165° |
| 2026-05-07 19:01 | 50.70276 | 8.40313 | 19092 ft | 281 kts | 162° |
| 2026-05-07 19:02 | 50.68476 | 8.41587 | 19083 ft | 287 kts | 153° |
| 2026-05-07 19:02 | 50.66753 | 8.43108 | 19081 ft | 282 kts | 153° |
| 2026-05-07 19:02 | 50.65029 | 8.44577 | 19081 ft | 280 kts | 154° |
| 2026-05-07 19:02 | 50.63315 | 8.46011 | 19079 ft | 279 kts | 154° |
| 2026-05-07 19:03 | 50.61601 | 8.47455 | 19077 ft | 279 kts | 154° |
| 2026-05-07 19:03 | 50.60018 | 8.49168 | 19066 ft | 280 kts | 137° |
| 2026-05-07 19:03 | 50.58759 | 8.51541 | 19072 ft | 281 kts | 129° |
| 2026-05-07 19:03 | 50.57606 | 8.54024 | 19076 ft | 281 kts | 128° |
| 2026-05-07 19:04 | 50.56408 | 8.56443 | 19079 ft | 280 kts | 131° |
| 2026-05-07 19:04 | 50.55149 | 8.58790 | 19078 ft | 280 kts | 132° |
| 2026-05-07 19:04 | 50.53903 | 8.61138 | 19075 ft | 280 kts | 131° |
| 2026-05-07 19:04 | 50.52663 | 8.63505 | 19074 ft | 280 kts | 133° |
| 2026-05-07 19:05 | 50.51340 | 8.65734 | 19078 ft | 279 kts | 136° |
| 2026-05-07 19:05 | 50.50039 | 8.67960 | 19075 ft | 280 kts | 132° |
| 2026-05-07 19:05 | 50.48803 | 8.70384 | 19074 ft | 281 kts | 130° |
| 2026-05-07 19:05 | 50.47613 | 8.72760 | 19075 ft | 281 kts | 131° |
| 2026-05-07 19:06 | 50.46378 | 8.75126 | 19071 ft | 280 kts | 131° |
| 2026-05-07 19:06 | 50.43883 | 8.79886 | 19067 ft | 281 kts | 131° |
| 2026-05-07 19:06 | 50.42664 | 8.82228 | 19066 ft | 280 kts | 131° |
| 2026-05-07 19:07 | 50.41413 | 8.84624 | 19065 ft | 280 kts | 131° |
| 2026-05-07 19:07 | 50.40191 | 8.86959 | 19066 ft | 281 kts | 131° |
| 2026-05-07 19:07 | 50.38940 | 8.89347 | 19063 ft | 281 kts | 131° |
| 2026-05-07 19:07 | 50.37699 | 8.91716 | 19067 ft | 281 kts | 131° |
| 2026-05-07 19:08 | 50.36477 | 8.94046 | 19066 ft | 281 kts | 131° |
| 2026-05-07 19:08 | 50.35219 | 8.96444 | 19066 ft | 281 kts | 131° |
| 2026-05-07 19:08 | 50.33820 | 8.99106 | 19065 ft | 279 kts | 131° |
| 2026-05-07 19:08 | 50.32749 | 9.01143 | 19063 ft | 277 kts | 131° |
| 2026-05-07 19:09 | 50.31545 | 9.03432 | 19062 ft | 276 kts | 131° |
| 2026-05-07 19:09 | 50.30324 | 9.05750 | 19066 ft | 275 kts | 131° |
| 2026-05-07 19:09 | 50.29110 | 9.08052 | 19068 ft | 275 kts | 131° |
| 2026-05-07 19:09 | 50.27894 | 9.10356 | 19063 ft | 274 kts | 131° |
| 2026-05-07 19:10 | 50.26680 | 9.12654 | 19065 ft | 274 kts | 131° |
| 2026-05-07 19:10 | 50.25465 | 9.14953 | 19063 ft | 274 kts | 131° |
| 2026-05-07 19:10 | 50.24233 | 9.17281 | 19064 ft | 274 kts | 131° |
| 2026-05-07 19:10 | 50.23016 | 9.19580 | 19061 ft | 274 kts | 131° |
| 2026-05-07 19:11 | 50.21817 | 9.21841 | 19065 ft | 274 kts | 131° |
| 2026-05-07 19:11 | 50.20597 | 9.24142 | 19065 ft | 275 kts | 131° |
| 2026-05-07 19:11 | 50.19389 | 9.26459 | 19059 ft | 275 kts | 127° |
| 2026-05-07 19:11 | 50.18524 | 9.29116 | 19061 ft | 276 kts | 110° |
| 2026-05-07 19:12 | 50.18152 | 9.32044 | 19061 ft | 276 kts | 94° |
| 2026-05-07 19:12 | 50.18177 | 9.35044 | 19066 ft | 276 kts | 89° |
| 2026-05-07 19:12 | 50.18215 | 9.38038 | 19066 ft | 276 kts | 90° |
| 2026-05-07 19:12 | 50.18232 | 9.41037 | 19065 ft | 276 kts | 89° |
| 2026-05-07 19:13 | 50.18272 | 9.44033 | 19066 ft | 276 kts | 89° |
| 2026-05-07 19:13 | 50.18322 | 9.47029 | 19064 ft | 276 kts | 89° |
| 2026-05-07 19:13 | 50.18366 | 9.50028 | 19062 ft | 276 kts | 89° |
| 2026-05-07 19:13 | 50.18406 | 9.53029 | 19066 ft | 277 kts | 89° |
| 2026-05-07 19:14 | 50.18445 | 9.56025 | 19065 ft | 276 kts | 89° |
| 2026-05-07 19:14 | 50.18486 | 9.59026 | 19071 ft | 276 kts | 89° |
| 2026-05-07 19:14 | 50.18524 | 9.62014 | 19067 ft | 276 kts | 89° |
| 2026-05-07 19:14 | 50.18562 | 9.65014 | 18975 ft | 279 kts | 89° |
| 2026-05-07 19:15 | 50.18597 | 9.68107 | 18622 ft | 290 kts | 89° |
| 2026-05-07 19:15 | 50.18632 | 9.71280 | 18249 ft | 295 kts | 89° |
| 2026-05-07 19:15 | 50.18670 | 9.74495 | 17849 ft | 297 kts | 89° |
| 2026-05-07 19:15 | 50.18708 | 9.77722 | 17450 ft | 298 kts | 89° |
| 2026-05-07 19:16 | 50.18747 | 9.80956 | 17058 ft | 298 kts | 89° |
| 2026-05-07 19:16 | 50.18782 | 9.84174 | 16662 ft | 297 kts | 89° |
| 2026-05-07 19:16 | 50.18816 | 9.87386 | 16278 ft | 296 kts | 89° |
| 2026-05-07 19:16 | 50.18850 | 9.90597 | 15894 ft | 294 kts | 89° |
| 2026-05-07 19:17 | 50.18883 | 9.93781 | 15517 ft | 293 kts | 89° |
| 2026-05-07 19:17 | 50.18868 | 9.96960 | 15147 ft | 292 kts | 91° |
| 2026-05-07 19:17 | 50.18805 | 10.00118 | 14781 ft | 291 kts | 96° |
| 2026-05-07 19:17 | 50.18298 | 10.03137 | 14432 ft | 284 kts | 113° |
| 2026-05-07 19:18 | 50.17228 | 10.05659 | 14112 ft | 276 kts | 133° |
| 2026-05-07 19:18 | 50.15921 | 10.07753 | 14086 ft | 264 kts | 136° |
| 2026-05-07 19:18 | 50.14651 | 10.09829 | 14079 ft | 265 kts | 134° |
| 2026-05-07 19:18 | 50.13422 | 10.11978 | 14079 ft | 265 kts | 132° |
| 2026-05-07 19:19 | 50.12233 | 10.14175 | 14073 ft | 266 kts | 131° |
| 2026-05-07 19:19 | 50.11038 | 10.16370 | 14075 ft | 266 kts | 132° |
| 2026-05-07 19:19 | 50.09834 | 10.18552 | 14075 ft | 266 kts | 132° |
| 2026-05-07 19:19 | 50.08628 | 10.20734 | 14072 ft | 266 kts | 132° |
| 2026-05-07 19:20 | 50.07426 | 10.22915 | 14074 ft | 266 kts | 132° |
| 2026-05-07 19:20 | 50.06223 | 10.25095 | 14071 ft | 266 kts | 132° |
| 2026-05-07 19:20 | 50.05018 | 10.27278 | 14070 ft | 266 kts | 132° |
| 2026-05-07 19:20 | 50.03802 | 10.29431 | 14074 ft | 266 kts | 136° |
| 2026-05-07 19:21 | 50.02388 | 10.31270 | 14082 ft | 264 kts | 145° |
| 2026-05-07 19:21 | 50.00912 | 10.32988 | 14081 ft | 265 kts | 143° |
| 2026-05-07 19:21 | 49.99504 | 10.34835 | 14073 ft | 265 kts | 140° |
| 2026-05-07 19:21 | 49.98185 | 10.36838 | 14070 ft | 266 kts | 129° |
| 2026-05-07 19:22 | 49.97217 | 10.39287 | 14070 ft | 267 kts | 119° |
| 2026-05-07 19:22 | 49.96418 | 10.41687 | 14072 ft | 267 kts | 118° |
| 2026-05-07 19:22 | 49.95537 | 10.44215 | 14073 ft | 267 kts | 121° |
| 2026-05-07 19:22 | 49.94579 | 10.46672 | 14074 ft | 267 kts | 123° |
| 2026-05-07 19:23 | 49.93611 | 10.49135 | 14074 ft | 267 kts | 122° |
| 2026-05-07 19:23 | 49.92667 | 10.51609 | 14070 ft | 267 kts | 122° |
| 2026-05-07 19:23 | 49.91723 | 10.54090 | 14074 ft | 267 kts | 122° |
| 2026-05-07 19:23 | 49.90774 | 10.56564 | 14069 ft | 267 kts | 122° |
| 2026-05-07 19:24 | 49.89823 | 10.59034 | 14064 ft | 267 kts | 122° |
| 2026-05-07 19:24 | 49.88904 | 10.61425 | 14065 ft | 248 kts | 122° |
| 2026-05-07 19:24 | 49.88051 | 10.63661 | 14068 ft | 235 kts | 122° |
| 2026-05-07 19:24 | 49.87239 | 10.65779 | 14066 ft | 228 kts | 122° |
| 2026-05-07 19:25 | 49.86421 | 10.67898 | 14067 ft | 224 kts | 122° |
| 2026-05-07 19:25 | 49.85626 | 10.69957 | 14064 ft | 222 kts | 122° |
| 2026-05-07 19:25 | 49.84834 | 10.72008 | 13972 ft | 225 kts | 122° |
| 2026-05-07 19:25 | 49.84004 | 10.74146 | 13579 ft | 236 kts | 122° |
| 2026-05-07 19:26 | 49.83148 | 10.76349 | 13188 ft | 241 kts | 122° |
| 2026-05-07 19:26 | 49.82282 | 10.78588 | 12799 ft | 243 kts | 122° |
| 2026-05-07 19:26 | 49.81415 | 10.80831 | 12410 ft | 243 kts | 122° |
| 2026-05-07 19:26 | 49.80548 | 10.83067 | 12027 ft | 242 kts | 122° |
| 2026-05-07 19:27 | 49.79681 | 10.85302 | 11644 ft | 241 kts | 122° |
| 2026-05-07 19:27 | 49.78820 | 10.87521 | 11269 ft | 240 kts | 122° |
| 2026-05-07 19:27 | 49.77963 | 10.89726 | 10899 ft | 239 kts | 122° |
| 2026-05-07 19:27 | 49.77108 | 10.91922 | 10527 ft | 237 kts | 122° |
| 2026-05-07 19:28 | 49.76258 | 10.94107 | 10162 ft | 236 kts | 122° |
| 2026-05-07 19:28 | 49.75431 | 10.96239 | 10072 ft | 225 kts | 122° |
| 2026-05-07 19:28 | 49.74643 | 10.98272 | 10069 ft | 217 kts | 122° |
| 2026-05-07 19:28 | 49.73873 | 11.00247 | 10058 ft | 213 kts | 122° |
| 2026-05-07 19:29 | 49.73114 | 11.02189 | 10056 ft | 210 kts | 122° |
| 2026-05-07 19:29 | 49.72361 | 11.04116 | 10059 ft | 209 kts | 122° |
| 2026-05-07 19:29 | 49.71611 | 11.06033 | 10059 ft | 208 kts | 122° |
| 2026-05-07 19:29 | 49.70862 | 11.07947 | 10062 ft | 208 kts | 122° |
| 2026-05-07 19:30 | 49.70114 | 11.09858 | 10062 ft | 208 kts | 122° |
| 2026-05-07 19:30 | 49.69359 | 11.11780 | 9816 ft | 209 kts | 123° |
| 2026-05-07 19:30 | 49.68612 | 11.13674 | 9409 ft | 204 kts | 122° |
| 2026-05-07 19:30 | 49.67882 | 11.15540 | 9005 ft | 202 kts | 122° |
| 2026-05-07 19:31 | 49.67158 | 11.17386 | 8611 ft | 200 kts | 122° |
| 2026-05-07 19:31 | 49.66440 | 11.19214 | 8216 ft | 199 kts | 122° |
| 2026-05-07 19:31 | 49.65727 | 11.21028 | 7835 ft | 197 kts | 122° |
| 2026-05-07 19:31 | 49.65013 | 11.22835 | 7458 ft | 197 kts | 124° |
| 2026-05-07 19:32 | 49.64156 | 11.24463 | 7086 ft | 194 kts | 134° |
| 2026-05-07 19:32 | 49.63239 | 11.25987 | 6721 ft | 194 kts | 135° |
| 2026-05-07 19:32 | 49.62317 | 11.27517 | 6350 ft | 194 kts | 135° |
| 2026-05-07 19:32 | 49.61402 | 11.29035 | 5953 ft | 193 kts | 135° |
| 2026-05-07 19:33 | 49.60489 | 11.30544 | 5565 ft | 192 kts | 135° |
| 2026-05-07 19:33 | 49.59584 | 11.32033 | 5182 ft | 190 kts | 135° |
| 2026-05-07 19:33 | 49.58673 | 11.33528 | 5006 ft | 193 kts | 134° |
| 2026-05-07 19:33 | 49.57747 | 11.35040 | 5010 ft | 195 kts | 135° |
| 2026-05-07 19:34 | 49.56812 | 11.36570 | 5012 ft | 197 kts | 135° |
| 2026-05-07 19:34 | 49.55868 | 11.38111 | 5005 ft | 197 kts | 135° |
| 2026-05-07 19:34 | 49.54926 | 11.39653 | 5003 ft | 198 kts | 135° |
| 2026-05-07 19:34 | 49.53983 | 11.41194 | 5003 ft | 197 kts | 135° |
| 2026-05-07 19:35 | 49.53044 | 11.42731 | 5007 ft | 197 kts | 135° |
| 2026-05-07 19:35 | 49.52099 | 11.44272 | 5006 ft | 198 kts | 135° |
| 2026-05-07 19:35 | 49.51128 | 11.45764 | 5006 ft | 197 kts | 141° |
| 2026-05-07 19:35 | 49.49911 | 11.46617 | 5004 ft | 193 kts | 175° |
| 2026-05-07 19:36 | 49.48645 | 11.46250 | 4945 ft | 187 kts | 214° |
| 2026-05-07 19:36 | 49.47774 | 11.44765 | 4588 ft | 193 kts | 243° |
| 2026-05-07 19:36 | 49.47103 | 11.42934 | 4209 ft | 199 kts | 245° |
| 2026-05-07 19:36 | 49.46768 | 11.40920 | 4008 ft | 191 kts | 270° |
| 2026-05-07 19:37 | 49.46837 | 11.39035 | 4003 ft | 167 kts | 278° |
| 2026-05-07 19:37 | 49.46977 | 11.37309 | 3994 ft | 160 kts | 281° |
| 2026-05-07 19:37 | 49.47077 | 11.36202 | 3995 ft | 157 kts | 280° |
| 2026-05-07 19:37 | 49.47236 | 11.34549 | 3991 ft | 155 kts | 281° |
| 2026-05-07 19:38 | 49.47399 | 11.32917 | 3992 ft | 154 kts | 281° |
| 2026-05-07 19:38 | 49.47554 | 11.31326 | 3924 ft | 146 kts | 282° |
| 2026-05-07 19:38 | 49.47706 | 11.29792 | 3733 ft | 145 kts | 281° |
| 2026-05-07 19:38 | 49.47857 | 11.28283 | 3547 ft | 139 kts | 282° |
| 2026-05-07 19:39 | 49.48033 | 11.26447 | 3313 ft | 125 kts | 282° |
| 2026-05-07 19:39 | 49.48123 | 11.25574 | 3202 ft | 121 kts | 282° |
| 2026-05-07 19:39 | 49.48243 | 11.24314 | 3039 ft | 118 kts | 282° |
| 2026-05-07 19:39 | 49.48361 | 11.23135 | 2894 ft | 99 kts | 283° |
| 2026-05-07 19:40 | 49.48453 | 11.22180 | 2760 ft | 85 kts | 283° |
| 2026-05-07 19:40 | 49.48535 | 11.21321 | 2646 ft | 78 kts | 283° |
| 2026-05-07 19:40 | 49.48616 | 11.20506 | 2545 ft | 77 kts | 284° |
| 2026-05-07 19:40 | 49.48697 | 11.19666 | 2441 ft | 81 kts | 283° |
| 2026-05-07 19:41 | 49.48783 | 11.18805 | 2326 ft | 82 kts | 282° |
| 2026-05-07 19:41 | 49.48870 | 11.17935 | 2209 ft | 83 kts | 282° |
| 2026-05-07 19:41 | 49.48957 | 11.17063 | 2094 ft | 83 kts | 282° |
| 2026-05-07 19:41 | 49.49041 | 11.16186 | 1970 ft | 83 kts | 281° |
| 2026-05-07 19:42 | 49.49126 | 11.15307 | 1849 ft | 83 kts | 280° |
| 2026-05-07 19:42 | 49.49214 | 11.14431 | 1731 ft | 83 kts | 280° |
| 2026-05-07 19:42 | 49.49302 | 11.13544 | 1617 ft | 84 kts | 280° |
| 2026-05-07 19:42 | 49.49390 | 11.12660 | 1496 ft | 83 kts | 281° |
| 2026-05-07 19:43 | 49.49479 | 11.11757 | 1381 ft | 86 kts | 280° |
| 2026-05-07 19:43 | 49.49570 | 11.10857 | 1268 ft | 85 kts | 281° |
| 2026-05-07 19:43 | 49.49658 | 11.09941 | 1186 ft | 97 kts | 280° |
| 2026-05-07 19:43 | 49.49730 | 11.08809 | 1701 ft | 105 kts | 276° |
| 2026-05-07 19:44 | 49.49740 | 11.07722 | 2496 ft | 98 kts | 270° |
| 2026-05-07 19:44 | 49.49722 | 11.06685 | 3116 ft | 98 kts | 279° |
| 2026-05-07 19:44 | 49.49781 | 11.05630 | 3725 ft | 98 kts | 279° |
| 2026-05-07 19:44 | 49.49899 | 11.04609 | 4333 ft | 96 kts | 282° |
| 2026-05-07 19:45 | 49.49958 | 11.03591 | 4917 ft | 95 kts | 278° |
| 2026-05-07 19:45 | 49.50052 | 11.02365 | 5022 ft | 137 kts | 279° |
| 2026-05-07 19:45 | 49.50200 | 11.00722 | 5027 ft | 170 kts | 280° |
| 2026-05-07 19:45 | 49.50376 | 10.98801 | 5024 ft | 189 kts | 280° |
| 2026-05-07 19:46 | 49.50553 | 10.96845 | 5013 ft | 178 kts | 279° |
| 2026-05-07 19:46 | 49.50545 | 10.94986 | 5001 ft | 175 kts | 256° |
| 2026-05-07 19:46 | 49.49788 | 10.93554 | 4994 ft | 180 kts | 214° |
| 2026-05-07 19:46 | 49.48589 | 10.93251 | 4990 ft | 177 kts | 171° |
| 2026-05-07 19:47 | 49.47552 | 10.94216 | 4998 ft | 176 kts | 136° |
| 2026-05-07 19:47 | 49.46713 | 10.95572 | 4999 ft | 175 kts | 135° |
| 2026-05-07 19:47 | 49.45875 | 10.96927 | 4995 ft | 175 kts | 134° |
| 2026-05-07 19:47 | 49.45038 | 10.98286 | 5000 ft | 174 kts | 134° |
| 2026-05-07 19:48 | 49.44206 | 10.99638 | 4997 ft | 178 kts | 134° |
| 2026-05-07 19:48 | 49.43347 | 11.01054 | 4996 ft | 180 kts | 129° |
| 2026-05-07 19:48 | 49.42922 | 11.02809 | 4999 ft | 179 kts | 96° |
| 2026-05-07 19:48 | 49.42793 | 11.04719 | 4998 ft | 180 kts | 95° |
| 2026-05-07 19:49 | 49.42663 | 11.06633 | 4999 ft | 181 kts | 95° |
| 2026-05-07 19:49 | 49.42535 | 11.08555 | 4999 ft | 181 kts | 95° |
| 2026-05-07 19:49 | 49.42409 | 11.10477 | 4999 ft | 181 kts | 95° |
| 2026-05-07 19:49 | 49.42283 | 11.12400 | 4998 ft | 181 kts | 94° |
| 2026-05-07 19:50 | 49.42155 | 11.14329 | 4997 ft | 181 kts | 95° |
| 2026-05-07 19:50 | 49.42026 | 11.16258 | 4999 ft | 182 kts | 95° |
| 2026-05-07 19:50 | 49.41897 | 11.18209 | 4997 ft | 181 kts | 94° |
| 2026-05-07 19:50 | 49.41770 | 11.20108 | 4999 ft | 182 kts | 95° |
| 2026-05-07 19:51 | 49.41641 | 11.22071 | 4996 ft | 182 kts | 95° |
| 2026-05-07 19:51 | 49.41514 | 11.24005 | 4997 ft | 182 kts | 95° |
| 2026-05-07 19:51 | 49.41390 | 11.25936 | 4993 ft | 182 kts | 95° |
| 2026-05-07 19:51 | 49.41263 | 11.27873 | 4995 ft | 182 kts | 95° |
| 2026-05-07 19:52 | 49.41139 | 11.29783 | 4993 ft | 182 kts | 95° |
| 2026-05-07 19:52 | 49.41029 | 11.31745 | 4988 ft | 181 kts | 88° |
| 2026-05-07 19:52 | 49.41238 | 11.33655 | 4829 ft | 188 kts | 75° |
| 2026-05-07 19:52 | 49.41546 | 11.35668 | 4455 ft | 198 kts | 75° |
| 2026-05-07 19:53 | 49.41863 | 11.37745 | 4071 ft | 200 kts | 75° |
| 2026-05-07 19:53 | 49.42178 | 11.39764 | 4007 ft | 187 kts | 72° |
| 2026-05-07 19:53 | 49.42875 | 11.41322 | 3988 ft | 174 kts | 31° |
| 2026-05-07 19:53 | 49.43990 | 11.41712 | 3989 ft | 164 kts | 348° |
| 2026-05-07 19:54 | 49.44936 | 11.40858 | 3989 ft | 159 kts | 316° |
| 2026-05-07 19:54 | 49.45711 | 11.39650 | 3992 ft | 156 kts | 315° |
| 2026-05-07 19:54 | 49.46411 | 11.38431 | 3993 ft | 150 kts | 301° |
| 2026-05-07 19:54 | 49.46874 | 11.37013 | 3989 ft | 148 kts | 292° |
| 2026-05-07 19:55 | 49.47101 | 11.35465 | 3993 ft | 147 kts | 284° |
| 2026-05-07 19:55 | 49.47280 | 11.33971 | 3992 ft | 137 kts | 282° |
| 2026-05-07 19:55 | 49.47436 | 11.32554 | 3990 ft | 134 kts | 282° |
| 2026-05-07 19:55 | 49.47573 | 11.31112 | 3903 ft | 140 kts | 282° |
| 2026-05-07 19:56 | 49.47727 | 11.29611 | 3711 ft | 139 kts | 281° |
| 2026-05-07 19:56 | 49.47860 | 11.28211 | 3535 ft | 127 kts | 282° |
| 2026-05-07 19:56 | 49.47990 | 11.26909 | 3369 ft | 119 kts | 282° |
| 2026-05-07 19:56 | 49.48112 | 11.25667 | 3210 ft | 117 kts | 283° |
| 2026-05-07 19:57 | 49.48233 | 11.24442 | 3053 ft | 115 kts | 282° |
| 2026-05-07 19:57 | 49.48352 | 11.23235 | 2896 ft | 114 kts | 283° |
| 2026-05-07 19:57 | 49.48467 | 11.22033 | 2745 ft | 114 kts | 282° |
| 2026-05-07 19:57 | 49.48589 | 11.20838 | 2590 ft | 113 kts | 282° |
| 2026-05-07 19:58 | 49.48703 | 11.19646 | 2430 ft | 113 kts | 282° |
| 2026-05-07 19:58 | 49.48824 | 11.18451 | 2273 ft | 113 kts | 282° |
| 2026-05-07 19:58 | 49.48938 | 11.17259 | 2114 ft | 112 kts | 281° |
| 2026-05-07 19:58 | 49.49045 | 11.16189 | 1973 ft | 91 kts | 281° |
| 2026-05-07 19:59 | 49.49131 | 11.15290 | 1842 ft | 81 kts | 280° |
| 2026-05-07 19:59 | 49.49207 | 11.14462 | 1731 ft | 77 kts | 280° |
| 2026-05-07 19:59 | 49.49292 | 11.13658 | 1627 ft | 76 kts | 279° |
| 2026-05-07 19:59 | 49.49369 | 11.12852 | 1522 ft | 75 kts | 280° |
| 2026-05-07 20:00 | 49.49431 | 11.12067 | 1427 ft | 77 kts | 277° |
| 2026-05-07 20:00 | 49.49532 | 11.11197 | 1320 ft | 88 kts | 280° |
| 2026-05-07 20:00 | 49.49630 | 11.10278 | 1196 ft | 84 kts | 278° |
| 2026-05-07 20:00 | 49.49708 | 11.09413 | 1109 ft | 80 kts | 279° |
| 2026-05-07 20:01 | 49.49791 | 11.08584 | 1056 ft | 77 kts | 279° |
| 2026-05-07 20:01 | 49.49867 | 11.07854 | 1043 ft | 59 kts | 278° |
| 2026-05-07 20:01 | 49.49913 | 11.07287 | 1037 ft | 46 kts | 278° |
| 2026-05-07 20:01 | 49.49917 | 11.07025 | 1031 ft | 21 kts | 203° |
| 2026-05-07 20:02 | 49.49822 | 11.07049 | 1030 ft | 9 kts | 148° |
| 2026-05-07 20:02 | 49.49819 | 11.07052 | 1030 ft | 0 kts | 150° |
| 2026-05-07 20:02 | 49.49794 | 11.07064 | 1030 ft | 0 kts | 161° |
| 2026-05-07 20:02 | 49.49782 | 11.07073 | 1030 ft | 9 kts | 151° |
| 2026-05-07 20:03 | 49.49741 | 11.07168 | 1031 ft | 10 kts | 100° |
| 2026-05-07 20:03 | 49.49725 | 11.07222 | 1032 ft | 5 kts | 154° |
| 2026-05-07 20:03 | 49.49683 | 11.07228 | 1031 ft | 3 kts | 186° |
| 2026-05-07 20:03 | 49.49655 | 11.07224 | 1030 ft | 5 kts | 185° |
| 2026-05-07 20:04 | 49.49614 | 11.07218 | 1029 ft | 7 kts | 187° |
| 2026-05-07 20:04 | 49.49554 | 11.07205 | 1026 ft | 9 kts | 192° |
| 2026-05-07 20:04 | 49.49501 | 11.07216 | 1023 ft | 9 kts | 110° |
| 2026-05-07 20:04 | 49.49497 | 11.07269 | 1025 ft | 0 kts | 97° |
| 2026-05-07 20:05 | 49.49495 | 11.07297 | 1025 ft | 6 kts | 101° |
| 2026-05-07 20:05 | 49.49488 | 11.07364 | 1025 ft | 5 kts | 95° |
| 2026-05-07 20:05 | 49.49503 | 11.07401 | 1026 ft | 1 kts | 13° |
| 2026-05-07 20:05 | 49.49510 | 11.07402 | 1027 ft | 0 kts | 358° |